METAR Data
IDs: Format: Raw Decoded Include TAF

Data at: 0649 UTC 18 Sep 2021

LHPA 180615Z 00000KT 9999 SCT043 BKN083 13/10 Q1015 RESHRA TEMPO -SHRA RMK BLU